createdAt,value
2019-03-24T00:02:14.970Z,40.37
2019-03-24T00:04:46.002Z,39.33
2019-03-24T00:07:18.455Z,45.03
2019-03-24T00:09:49.554Z,44.90
2019-03-24T00:12:24.456Z,46.80
2019-03-24T00:14:56.695Z,37.77
2019-03-24T00:17:27.815Z,27.93
2019-03-24T00:19:59.240Z,26.33
2019-03-24T00:22:30.260Z,26.63
2019-03-24T00:25:01.439Z,26.13
2019-03-24T00:27:32.621Z,26.97
2019-03-24T00:30:03.664Z,32.93
2019-03-24T00:32:34.728Z,35.67
2019-03-24T00:35:06.146Z,35.50
2019-03-24T00:37:37.279Z,33.40
2019-03-24T00:40:08.784Z,32.30
2019-03-24T00:42:39.806Z,33.03
2019-03-24T00:45:10.810Z,31.23
2019-03-24T00:47:41.800Z,29.43
2019-03-24T00:50:14.758Z,30.03
2019-03-24T00:52:45.853Z,27.83
2019-03-24T00:55:17.020Z,26.83
2019-03-24T00:57:48.172Z,26.70
2019-03-24T01:00:24.032Z,28.40
2019-03-24T01:02:55.198Z,30.10
2019-03-24T01:05:26.165Z,28.27
2019-03-24T01:07:57.238Z,28.93
2019-03-24T01:10:28.319Z,30.30
2019-03-24T01:12:59.324Z,39.30
2019-03-24T01:15:30.360Z,43.60
2019-03-24T01:18:01.335Z,46.13
2019-03-24T01:20:32.431Z,47.03
2019-03-24T01:23:03.563Z,47.20
2019-03-24T01:25:34.657Z,56.27
2019-03-24T01:28:05.632Z,49.40
2019-03-24T01:30:36.713Z,52.67
2019-03-24T01:33:07.772Z,50.13
2019-03-24T01:35:38.832Z,50.07
2019-03-24T01:38:09.886Z,48.03
2019-03-24T01:40:40.858Z,49.90
2019-03-24T01:43:11.882Z,47.93
2019-03-24T01:45:42.910Z,48.03
2019-03-24T01:48:13.984Z,46.07
2019-03-24T01:50:44.970Z,48.30
2019-03-24T01:53:16.061Z,46.33
2019-03-24T01:55:47.147Z,45.73
2019-03-24T01:58:18.206Z,47.67
2019-03-24T02:00:49.255Z,46.93
2019-03-24T02:03:20.324Z,48.00
2019-03-24T02:05:51.399Z,46.10
2019-03-24T02:08:22.840Z,46.07
2019-03-24T02:10:53.830Z,44.00
2019-03-24T02:13:24.955Z,43.83
2019-03-24T02:15:56.020Z,43.03
2019-03-24T02:18:26.948Z,39.63
2019-03-24T02:20:58.070Z,44.87
2019-03-24T02:23:29.187Z,41.27
2019-03-24T02:26:00.271Z,40.20
2019-03-24T02:28:31.360Z,40.17
2019-03-24T02:31:02.405Z,37.97
2019-03-24T02:33:33.449Z,34.37
2019-03-24T02:36:04.404Z,36.97
2019-03-24T02:38:35.813Z,34.53
2019-03-24T02:41:06.815Z,34.13
2019-03-24T02:43:37.858Z,33.50
2019-03-24T02:46:22.874Z,34.23
2019-03-24T02:48:41.528Z,34.37
2019-03-24T02:51:12.572Z,33.50
2019-03-24T02:53:43.674Z,32.30
2019-03-24T02:56:14.700Z,35.63
2019-03-24T02:58:45.805Z,33.70
2019-03-24T03:01:16.781Z,34.20
2019-03-24T03:03:47.818Z,32.37
2019-03-24T03:06:18.846Z,32.83
2019-03-24T03:08:49.909Z,32.27
2019-03-24T03:11:20.926Z,33.90
2019-03-24T03:13:51.939Z,32.10
2019-03-24T03:16:22.882Z,29.67
2019-03-24T03:18:53.974Z,33.70
2019-03-24T03:21:25.012Z,29.87
2019-03-24T03:23:56.157Z,30.30
2019-03-24T03:26:27.177Z,31.33
2019-03-24T03:28:58.214Z,34.73
2019-03-24T03:31:29.323Z,31.83
2019-03-24T03:34:00.409Z,30.13
2019-03-24T03:36:31.460Z,33.27
2019-03-24T03:39:02.526Z,33.67
2019-03-24T03:41:33.910Z,34.53
2019-03-24T03:44:05.013Z,35.17
2019-03-24T03:46:36.049Z,34.77
2019-03-24T03:49:07.236Z,34.60
2019-03-24T03:51:38.258Z,32.13
2019-03-24T03:54:09.427Z,34.37
2019-03-24T03:56:40.442Z,31.10
2019-03-24T03:59:11.465Z,32.83
2019-03-24T04:01:42.674Z,30.83
2019-03-24T04:04:13.865Z,31.70
2019-03-24T04:06:44.861Z,28.70
2019-03-24T04:09:15.907Z,31.27
2019-03-24T04:11:46.993Z,32.20
2019-03-24T04:14:17.998Z,33.73
2019-03-24T04:16:49.107Z,31.93
2019-03-24T04:19:20.243Z,34.07
2019-03-24T04:21:51.251Z,33.27
2019-03-24T04:24:22.233Z,32.97
2019-03-24T04:26:53.269Z,33.53
2019-03-24T04:29:24.230Z,34.20
2019-03-24T04:31:55.282Z,34.07
2019-03-24T04:34:26.354Z,34.73
2019-03-24T04:37:04.268Z,35.77
2019-03-24T04:39:35.262Z,37.83
2019-03-24T04:42:06.679Z,35.30
2019-03-24T04:44:37.808Z,38.10
2019-03-24T04:47:16.292Z,37.73
2019-03-24T04:49:41.472Z,34.77
2019-03-24T04:52:12.580Z,37.23
2019-03-24T04:54:43.636Z,34.10
2019-03-24T04:57:14.632Z,34.70
2019-03-24T04:59:45.736Z,34.17
2019-03-24T05:02:16.714Z,34.47
2019-03-24T05:04:47.713Z,33.33
2019-03-24T05:07:18.858Z,30.67
2019-03-24T05:09:50.634Z,30.77
2019-03-24T05:12:21.628Z,31.90
2019-03-24T05:14:52.764Z,28.90
2019-03-24T05:17:27.252Z,28.00
2019-03-24T05:19:56.496Z,28.80
2019-03-24T05:22:27.457Z,29.37
2019-03-24T05:24:58.441Z,31.37
2019-03-24T05:27:29.505Z,28.77
2019-03-24T05:30:00.521Z,26.57
2019-03-24T05:32:31.537Z,22.63
2019-03-24T05:35:02.732Z,25.90
2019-03-24T05:37:33.749Z,25.43
2019-03-24T05:40:04.854Z,22.17
2019-03-24T05:42:36.919Z,23.03
2019-03-24T05:45:08.200Z,23.27
2019-03-24T05:47:39.285Z,23.50
2019-03-24T05:50:10.681Z,23.07
2019-03-24T05:52:41.759Z,23.27
2019-03-24T05:55:12.756Z,21.47
2019-03-24T05:57:43.819Z,22.93
2019-03-24T06:00:16.022Z,22.20
2019-03-24T06:02:47.205Z,20.27
2019-03-24T06:05:18.305Z,19.57
2019-03-24T06:07:49.398Z,20.60
2019-03-24T06:10:20.435Z,22.77
2019-03-24T06:12:51.492Z,22.33
2019-03-24T06:15:22.588Z,22.17
2019-03-24T06:17:53.588Z,23.47
2019-03-24T06:20:24.589Z,23.10
2019-03-24T06:22:55.617Z,21.27
2019-03-24T06:25:26.696Z,23.17
2019-03-24T06:27:57.684Z,23.77
2019-03-24T06:30:28.797Z,23.67
2019-03-24T06:32:59.792Z,24.73
2019-03-24T06:35:30.873Z,26.10
2019-03-24T06:38:01.875Z,23.57
2019-03-24T06:40:32.883Z,26.27
2019-03-24T06:43:03.981Z,23.20
2019-03-24T06:45:35.000Z,23.10
2019-03-24T06:48:06.152Z,20.83
2019-03-24T06:50:37.220Z,21.57
2019-03-24T06:53:09.954Z,22.30
2019-03-24T06:55:42.068Z,20.93
2019-03-24T06:58:13.174Z,21.77
2019-03-24T07:00:44.188Z,22.47
2019-03-24T07:03:15.199Z,22.57
2019-03-24T07:05:46.457Z,22.47
2019-03-24T07:08:17.508Z,21.40
2019-03-24T07:10:49.972Z,21.57
2019-03-24T07:13:22.303Z,20.77
2019-03-24T07:15:53.513Z,22.70
2019-03-24T07:18:24.602Z,19.50
2019-03-24T07:20:55.769Z,20.83
2019-03-24T07:23:26.864Z,20.87
2019-03-24T07:25:57.965Z,19.73
2019-03-24T07:28:30.203Z,22.10
2019-03-24T07:31:01.426Z,19.67
2019-03-24T07:33:32.552Z,20.77
2019-03-24T07:36:03.908Z,19.63
2019-03-24T07:38:35.026Z,19.63
2019-03-24T07:41:06.283Z,17.33
2019-03-24T07:43:37.460Z,17.50
2019-03-24T07:46:08.459Z,18.97
2019-03-24T07:48:39.528Z,18.53
2019-03-24T07:51:10.859Z,17.77
2019-03-24T07:53:42.083Z,16.90
2019-03-24T07:56:13.236Z,15.80
2019-03-24T07:58:46.006Z,12.07
2019-03-24T08:01:17.034Z,15.20
2019-03-24T08:03:48.095Z,11.17
2019-03-24T08:06:19.100Z,10.77
2019-03-24T08:08:50.155Z,10.83
2019-03-24T08:11:21.359Z,10.20
2019-03-24T08:13:54.203Z,9.03
2019-03-24T08:16:25.259Z,9.10
2019-03-24T08:18:56.302Z,9.10
2019-03-24T08:21:27.339Z,9.97
2019-03-24T08:23:58.407Z,9.73
2019-03-24T08:26:29.407Z,10.73
2019-03-24T08:29:00.496Z,10.03
2019-03-24T08:31:31.512Z,10.10
2019-03-24T08:34:02.554Z,7.77
2019-03-24T08:36:33.679Z,7.30
2019-03-24T08:39:05.695Z,5.73
2019-03-24T08:41:39.284Z,6.57
2019-03-24T08:44:10.395Z,6.80
2019-03-24T08:46:41.434Z,7.47
2019-03-24T08:49:12.462Z,6.73
2019-03-24T08:51:43.539Z,7.90
2019-03-24T08:54:14.590Z,7.63
2019-03-24T08:56:45.668Z,7.17
2019-03-24T08:59:18.698Z,6.63
2019-03-24T09:01:49.938Z,5.77
2019-03-24T09:04:22.234Z,6.80
2019-03-24T09:06:53.358Z,5.90
2019-03-24T09:09:25.476Z,6.90
2019-03-24T09:11:57.042Z,6.43
2019-03-24T09:14:28.062Z,7.20
2019-03-24T09:16:59.206Z,6.67
2019-03-24T09:19:30.273Z,5.90
2019-03-24T09:22:01.695Z,6.60
2019-03-24T09:24:32.864Z,7.13
2019-03-24T09:27:03.958Z,7.23
2019-03-24T09:29:35.054Z,7.13
2019-03-24T09:32:06.119Z,7.77
2019-03-24T09:34:37.243Z,7.10
2019-03-24T09:37:08.328Z,5.80
2019-03-24T09:39:39.469Z,6.47
2019-03-24T09:42:10.483Z,6.23
2019-03-24T09:44:41.569Z,6.73
2019-03-24T09:47:12.612Z,5.93
2019-03-24T09:49:43.680Z,7.60
2019-03-24T09:52:14.734Z,7.53
2019-03-24T09:54:45.915Z,7.00
2019-03-24T09:57:18.037Z,6.70
2019-03-24T09:59:49.289Z,6.27
2019-03-24T10:02:20.339Z,6.70
2019-03-24T10:04:51.457Z,6.07
2019-03-24T10:07:22.492Z,5.70
2019-03-24T10:09:54.693Z,6.53
2019-03-24T10:12:25.805Z,5.83
2019-03-24T10:14:56.884Z,6.70
2019-03-24T10:17:28.028Z,6.00
2019-03-24T10:19:59.140Z,6.60
2019-03-24T10:22:30.227Z,6.93
2019-03-24T10:25:01.400Z,7.80
2019-03-24T10:27:32.519Z,7.43
2019-03-24T10:30:04.669Z,7.60
2019-03-24T10:32:35.837Z,7.30
2019-03-24T10:35:08.377Z,7.70
2019-03-24T10:37:39.534Z,8.10
2019-03-24T10:40:10.985Z,8.33
2019-03-24T10:42:42.117Z,7.17
2019-03-24T10:45:13.216Z,8.20
2019-03-24T10:47:44.379Z,9.10
2019-03-24T10:50:15.517Z,8.33
2019-03-24T10:52:46.557Z,9.73
2019-03-24T10:55:18.443Z,7.93
2019-03-24T10:57:49.511Z,8.70
2019-03-24T11:00:39.691Z,7.70
2019-03-24T11:03:10.777Z,7.87
2019-03-24T11:05:41.957Z,7.17
2019-03-24T11:08:14.003Z,7.90
2019-03-24T11:10:45.025Z,8.47
2019-03-24T11:13:16.209Z,8.63
2019-03-24T11:15:49.539Z,7.80
2019-03-24T11:18:20.550Z,7.90
2019-03-24T11:20:51.623Z,7.90
2019-03-24T11:23:22.640Z,7.33
2019-03-24T11:25:53.777Z,8.13
2019-03-24T11:28:24.903Z,7.83
2019-03-24T11:30:55.923Z,9.03
2019-03-24T11:33:29.477Z,9.40
2019-03-24T11:35:59.783Z,8.57
2019-03-24T11:38:30.830Z,9.07
2019-03-24T11:41:01.856Z,10.63
2019-03-24T11:43:32.901Z,8.60
2019-03-24T11:46:03.881Z,8.73
2019-03-24T11:48:36.256Z,9.03
2019-03-24T11:51:07.305Z,9.60
2019-03-24T11:53:38.511Z,8.73
2019-03-24T11:56:09.633Z,8.40
2019-03-24T11:58:40.770Z,8.13
2019-03-24T12:01:11.948Z,8.77
2019-03-24T12:03:43.047Z,8.57
2019-03-24T12:06:15.020Z,8.27
2019-03-24T12:08:46.183Z,7.53
2019-03-24T12:11:17.299Z,8.27
2019-03-24T12:13:49.453Z,8.47
2019-03-24T12:16:20.501Z,8.37
2019-03-24T12:18:52.621Z,8.67
2019-03-24T12:21:23.715Z,7.67
2019-03-24T12:23:54.873Z,8.43
2019-03-24T12:26:25.909Z,8.50
2019-03-24T12:28:56.915Z,8.10
2019-03-24T12:31:27.973Z,7.87
2019-03-24T12:33:58.985Z,8.40
2019-03-24T12:36:30.013Z,8.30
2019-03-24T12:39:01.109Z,8.50
2019-03-24T12:41:33.995Z,8.27
2019-03-24T12:44:05.080Z,7.53
2019-03-24T12:46:36.546Z,8.77
2019-03-24T12:49:07.615Z,8.07
2019-03-24T12:51:39.332Z,8.50
2019-03-24T12:54:10.475Z,7.27
2019-03-24T12:56:41.635Z,7.60
2019-03-24T12:59:13.642Z,7.37
2019-03-24T13:01:44.755Z,8.67
2019-03-24T13:04:15.971Z,7.63
2019-03-24T13:06:47.147Z,7.10
2019-03-24T13:09:18.318Z,7.13
2019-03-24T13:11:49.441Z,7.93
2019-03-24T13:14:20.588Z,7.73
2019-03-24T13:16:51.572Z,7.47
2019-03-24T13:19:22.744Z,7.60
2019-03-24T13:21:53.839Z,8.27
2019-03-24T13:24:24.973Z,9.23
2019-03-24T13:26:56.017Z,9.60
2019-03-24T13:29:27.057Z,10.13
2019-03-24T13:31:58.240Z,9.03
2019-03-24T13:34:29.293Z,8.73
2019-03-24T13:37:00.345Z,8.43
2019-03-24T13:39:31.528Z,8.53
2019-03-24T13:42:02.949Z,7.43
2019-03-24T13:44:34.064Z,7.93
2019-03-24T13:47:05.171Z,7.47
2019-03-24T13:49:36.314Z,7.63
2019-03-24T13:52:07.454Z,8.40
2019-03-24T13:54:38.615Z,8.70
2019-03-24T13:57:09.797Z,7.30
2019-03-24T13:59:40.831Z,7.10
2019-03-24T14:02:11.967Z,7.47
2019-03-24T14:04:42.955Z,6.90
2019-03-24T14:07:14.141Z,7.10
2019-03-24T14:09:45.145Z,7.70
2019-03-24T14:12:16.472Z,7.27
2019-03-24T14:14:49.464Z,8.20
2019-03-24T14:17:20.205Z,7.33
2019-03-24T14:19:51.246Z,7.33
2019-03-24T14:22:22.340Z,8.33
2019-03-24T14:24:53.443Z,8.13
2019-03-24T14:27:24.444Z,7.53
2019-03-24T14:29:57.890Z,7.00
2019-03-24T14:32:29.976Z,9.63
2019-03-24T14:35:01.031Z,15.27
2019-03-24T14:37:32.141Z,11.23
2019-03-24T14:40:03.218Z,8.33
2019-03-24T14:42:34.371Z,8.00
2019-03-24T14:45:05.745Z,7.40
2019-03-24T14:47:36.846Z,7.30
2019-03-24T14:50:08.160Z,19.80
2019-03-24T14:52:39.210Z,23.17
2019-03-24T14:55:10.445Z,12.87
2019-03-24T14:57:41.695Z,13.13
2019-03-24T15:00:13.041Z,12.83
2019-03-24T15:02:44.158Z,8.47
2019-03-24T15:05:15.339Z,8.07
2019-03-24T15:07:46.390Z,7.20
2019-03-24T15:10:17.501Z,7.00
2019-03-24T15:12:48.579Z,7.97
2019-03-24T15:15:19.684Z,8.37
2019-03-24T15:17:50.741Z,7.87
2019-03-24T15:20:21.738Z,8.20
2019-03-24T15:22:52.857Z,7.53
2019-03-24T15:25:23.903Z,7.43
2019-03-24T15:27:54.988Z,7.67
2019-03-24T15:30:26.017Z,7.37
2019-03-24T15:32:56.982Z,7.47
2019-03-24T15:35:28.006Z,7.50
2019-03-24T15:38:08.009Z,7.77
2019-03-24T15:40:31.831Z,7.40
2019-03-24T15:43:02.854Z,8.73
2019-03-24T15:45:33.889Z,9.63
2019-03-24T15:48:05.188Z,8.70
2019-03-24T15:50:36.347Z,9.03
2019-03-24T15:53:09.399Z,8.33
2019-03-24T15:55:40.427Z,8.60
2019-03-24T15:58:11.550Z,10.73
2019-03-24T16:00:47.431Z,9.27
2019-03-24T16:03:21.414Z,9.80
2019-03-24T16:05:52.502Z,10.20
2019-03-24T16:08:23.541Z,10.67
2019-03-24T16:10:54.662Z,9.77
2019-03-24T16:13:26.089Z,12.07
2019-03-24T16:15:57.125Z,10.70
2019-03-24T16:18:28.204Z,10.83
2019-03-24T16:20:59.196Z,9.60
2019-03-24T16:23:30.252Z,10.43
2019-03-24T16:26:01.362Z,10.47
2019-03-24T16:28:32.432Z,10.53
2019-03-24T16:31:03.483Z,10.53
2019-03-24T16:33:34.547Z,9.57
2019-03-24T16:36:05.586Z,9.30
2019-03-24T16:38:36.630Z,10.13
2019-03-24T16:41:08.614Z,10.17
2019-03-24T16:43:40.751Z,11.10
2019-03-24T16:46:12.894Z,12.13
2019-03-24T16:48:43.930Z,15.47
2019-03-24T16:51:14.978Z,14.33
2019-03-24T16:53:46.027Z,12.20
2019-03-24T16:56:17.064Z,12.27
2019-03-24T16:58:48.151Z,12.80
2019-03-24T17:01:19.140Z,13.03
2019-03-24T17:03:50.316Z,12.20
2019-03-24T17:06:21.386Z,13.13
2019-03-24T17:08:52.445Z,12.03
2019-03-24T17:11:23.450Z,14.80
2019-03-24T17:13:54.507Z,26.40
2019-03-24T17:16:25.614Z,16.87
2019-03-24T17:18:56.775Z,14.43
2019-03-24T17:21:27.932Z,14.43
2019-03-24T17:23:58.970Z,16.00
2019-03-24T17:26:30.068Z,14.60
2019-03-24T17:29:01.116Z,16.60
2019-03-24T17:31:32.128Z,16.93
2019-03-24T17:34:03.168Z,19.33
2019-03-24T17:36:34.267Z,31.53
2019-03-24T17:39:07.350Z,32.10
2019-03-24T17:41:38.471Z,28.00
2019-03-24T17:44:09.550Z,26.17
2019-03-24T17:46:40.578Z,30.27
2019-03-24T17:49:11.599Z,23.53
2019-03-24T17:51:42.669Z,29.93
2019-03-24T17:54:13.815Z,31.03
2019-03-24T17:56:44.913Z,29.70
2019-03-24T17:59:16.145Z,25.03
2019-03-24T18:01:47.444Z,24.23
2019-03-24T18:04:24.882Z,32.23
2019-03-24T18:06:52.281Z,25.87
2019-03-24T18:09:23.389Z,26.23
2019-03-24T18:11:54.465Z,24.37
2019-03-24T18:14:25.584Z,27.10
2019-03-24T18:16:56.681Z,33.70
2019-03-24T18:19:27.776Z,55.80
2019-03-24T18:21:58.838Z,48.47
2019-03-24T18:24:29.948Z,39.57
2019-03-24T18:27:00.984Z,26.73
2019-03-24T18:29:32.085Z,24.20
2019-03-24T18:32:03.178Z,24.50
2019-03-24T18:34:34.251Z,23.00
2019-03-24T18:37:05.332Z,24.37
2019-03-24T18:39:36.398Z,23.20
2019-03-24T18:42:07.550Z,25.83
2019-03-24T18:44:38.616Z,21.90
2019-03-24T18:47:09.624Z,20.73
2019-03-24T18:49:40.630Z,17.97
2019-03-24T18:52:22.077Z,18.80
2019-03-24T18:54:44.463Z,18.67
2019-03-24T18:57:15.558Z,18.00
2019-03-24T18:59:46.587Z,18.67
2019-03-24T19:02:17.590Z,20.10
2019-03-24T19:04:48.666Z,20.03
2019-03-24T19:07:22.717Z,23.13
2019-03-24T19:09:53.764Z,27.70
2019-03-24T19:12:24.792Z,26.70
2019-03-24T19:14:55.849Z,22.00
2019-03-24T19:17:28.100Z,20.30
2019-03-24T19:19:59.194Z,21.23
2019-03-24T19:22:33.801Z,23.07
2019-03-24T19:25:02.994Z,23.27
2019-03-24T19:27:34.062Z,21.20
2019-03-24T19:30:06.071Z,21.17
2019-03-24T19:32:37.316Z,20.33
2019-03-24T19:35:10.288Z,19.77
2019-03-24T19:37:42.166Z,20.00
2019-03-24T19:40:26.425Z,20.53
2019-03-24T19:42:57.787Z,20.13
2019-03-24T19:45:28.887Z,18.47
2019-03-24T19:47:59.989Z,20.50
2019-03-24T19:50:31.082Z,20.53
2019-03-24T19:53:02.188Z,19.93
2019-03-24T19:55:33.837Z,18.80
2019-03-24T19:58:05.231Z,19.07
2019-03-24T20:00:36.403Z,19.40
2019-03-24T20:03:09.557Z,20.67
2019-03-24T20:05:41.906Z,19.90
2019-03-24T20:08:13.068Z,19.70
2019-03-24T20:10:44.327Z,18.67
2019-03-24T20:13:15.489Z,17.77
2019-03-24T20:15:47.988Z,16.93
2019-03-24T20:18:19.168Z,18.37
2019-03-24T20:20:52.137Z,18.23
2019-03-24T20:23:22.855Z,17.63
2019-03-24T20:25:54.115Z,20.20
2019-03-24T20:28:25.276Z,20.50
2019-03-24T20:30:56.368Z,18.70
2019-03-24T20:33:27.514Z,17.80
2019-03-24T20:35:58.676Z,18.77
2019-03-24T20:38:32.016Z,17.93
2019-03-24T20:41:03.133Z,17.47
2019-03-24T20:43:34.177Z,18.47
2019-03-24T20:46:05.329Z,18.93
2019-03-24T20:48:36.372Z,18.00
2019-03-24T20:51:09.503Z,18.13
2019-03-24T20:53:40.649Z,18.13
2019-03-24T20:56:11.716Z,17.27
2019-03-24T20:58:42.840Z,17.03
2019-03-24T21:01:14.839Z,18.90
2019-03-24T21:03:45.970Z,19.33
2019-03-24T21:06:17.157Z,19.10
2019-03-24T21:08:48.417Z,18.83
2019-03-24T21:11:19.507Z,17.30
2019-03-24T21:13:50.547Z,19.20
2019-03-24T21:16:21.857Z,19.27
2019-03-24T21:18:52.913Z,19.60
2019-03-24T21:21:23.908Z,22.80
2019-03-24T21:23:55.003Z,20.60
2019-03-24T21:26:30.186Z,22.60
2019-03-24T21:29:02.313Z,22.17
2019-03-24T21:31:33.489Z,21.53
2019-03-24T21:34:04.609Z,22.13
2019-03-24T21:36:35.920Z,23.03
2019-03-24T21:39:09.880Z,21.47
2019-03-24T21:41:41.448Z,21.07
2019-03-24T21:44:12.523Z,19.63
2019-03-24T21:46:45.857Z,21.90
2019-03-24T21:49:17.025Z,23.53
2019-03-24T21:51:49.471Z,22.20
2019-03-24T21:54:20.506Z,21.57
2019-03-24T21:56:51.556Z,22.10
2019-03-24T21:59:22.649Z,23.40
2019-03-24T22:01:53.737Z,23.70
2019-03-24T22:04:24.809Z,23.00
2019-03-24T22:06:55.836Z,23.37
2019-03-24T22:09:26.825Z,23.20
2019-03-24T22:11:57.906Z,23.80
2019-03-24T22:14:28.999Z,24.20
2019-03-24T22:17:00.030Z,22.60
2019-03-24T22:19:31.165Z,26.57
2019-03-24T22:22:02.201Z,26.17
2019-03-24T22:24:33.278Z,24.67
2019-03-24T22:27:04.475Z,26.53
2019-03-24T22:29:35.479Z,29.27
2019-03-24T22:32:06.697Z,26.37
2019-03-24T22:34:37.783Z,26.20
2019-03-24T22:37:15.803Z,26.43
2019-03-24T22:39:41.688Z,26.57
2019-03-24T22:42:12.701Z,26.07
2019-03-24T22:44:43.858Z,28.27
2019-03-24T22:47:14.932Z,30.43
2019-03-24T22:49:46.147Z,27.90
2019-03-24T22:52:17.576Z,27.67
2019-03-24T22:54:49.723Z,28.23
2019-03-24T22:57:20.808Z,27.20
2019-03-24T22:59:51.945Z,30.03
2019-03-24T23:02:23.009Z,27.67
2019-03-24T23:04:54.153Z,28.77
2019-03-24T23:07:25.153Z,27.00
2019-03-24T23:09:56.208Z,31.03
2019-03-24T23:12:28.796Z,30.73
2019-03-24T23:14:59.892Z,30.50
2019-03-24T23:17:32.183Z,29.10
2019-03-24T23:20:03.235Z,28.60
2019-03-24T23:22:34.256Z,27.70
2019-03-24T23:25:05.957Z,28.20
2019-03-24T23:27:37.013Z,30.03
2019-03-24T23:30:08.407Z,29.63
2019-03-24T23:32:39.417Z,30.47
2019-03-24T23:35:10.813Z,31.23
2019-03-24T23:37:41.895Z,29.03
2019-03-24T23:40:13.132Z,28.97
2019-03-24T23:42:44.256Z,31.97
2019-03-24T23:45:15.392Z,31.80
2019-03-24T23:47:46.483Z,34.57
2019-03-24T23:50:17.537Z,32.90
2019-03-24T23:52:48.508Z,34.33
2019-03-24T23:55:21.451Z,34.17
2019-03-24T23:57:52.171Z,33.87
